sensor_id;sensor_type;location;lat;lon;timestamp;P1;durP1;ratioP1;P2;durP2;ratioP2
34403;SDS011;23116;47.660;9.126;2023-11-21T00:00:39;2.75;;;0.95;;
34403;SDS011;23116;47.660;9.126;2023-11-21T00:03:05;1.45;;;0.60;;
34403;SDS011;23116;47.660;9.126;2023-11-21T00:05:32;1.27;;;0.52;;
34403;SDS011;23116;47.660;9.126;2023-11-21T00:08:00;1.42;;;0.82;;
34403;SDS011;23116;47.660;9.126;2023-11-21T00:10:27;2.25;;;0.65;;
34403;SDS011;23116;47.660;9.126;2023-11-21T00:12:53;0.68;;;0.60;;
34403;SDS011;23116;47.660;9.126;2023-11-21T00:15:20;2.05;;;0.82;;
34403;SDS011;23116;47.660;9.126;2023-11-21T00:17:46;1.95;;;1.02;;
34403;SDS011;23116;47.660;9.126;2023-11-21T00:20:13;2.03;;;0.68;;
34403;SDS011;23116;47.660;9.126;2023-11-21T00:22:39;2.15;;;1.15;;
34403;SDS011;23116;47.660;9.126;2023-11-21T00:25:06;1.48;;;0.68;;
34403;SDS011;23116;47.660;9.126;2023-11-21T00:27:34;2.95;;;0.60;;
34403;SDS011;23116;47.660;9.126;2023-11-21T00:30:01;1.95;;;0.60;;
34403;SDS011;23116;47.660;9.126;2023-11-21T00:32:32;1.80;;;0.90;;
34403;SDS011;23116;47.660;9.126;2023-11-21T00:34:59;3.10;;;0.88;;
34403;SDS011;23116;47.660;9.126;2023-11-21T00:37:25;2.65;;;0.77;;
34403;SDS011;23116;47.660;9.126;2023-11-21T00:39:52;1.35;;;0.68;;
34403;SDS011;23116;47.660;9.126;2023-11-21T00:42:18;0.80;;;0.50;;
34403;SDS011;23116;47.660;9.126;2023-11-21T00:44:46;2.08;;;0.77;;
34403;SDS011;23116;47.660;9.126;2023-11-21T00:47:13;0.88;;;0.80;;
34403;SDS011;23116;47.660;9.126;2023-11-21T00:49:39;2.40;;;0.73;;
34403;SDS011;23116;47.660;9.126;2023-11-21T00:52:06;1.73;;;0.82;;
34403;SDS011;23116;47.660;9.126;2023-11-21T00:54:33;1.42;;;0.52;;
34403;SDS011;23116;47.660;9.126;2023-11-21T00:57:00;1.17;;;0.73;;
34403;SDS011;23116;47.660;9.126;2023-11-21T00:59:26;1.98;;;0.63;;
34403;SDS011;23116;47.660;9.126;2023-11-21T01:01:53;1.23;;;0.80;;
34403;SDS011;23116;47.660;9.126;2023-11-21T01:04:19;1.25;;;0.70;;
34403;SDS011;23116;47.660;9.126;2023-11-21T01:06:46;2.10;;;0.85;;
34403;SDS011;23116;47.660;9.126;2023-11-21T01:09:12;0.90;;;0.70;;
34403;SDS011;23116;47.660;9.126;2023-11-21T01:11:39;1.52;;;0.60;;
34403;SDS011;23116;47.660;9.126;2023-11-21T01:14:05;0.93;;;0.70;;
34403;SDS011;23116;47.660;9.126;2023-11-21T01:16:33;1.73;;;0.80;;
34403;SDS011;23116;47.660;9.126;2023-11-21T01:19:00;1.40;;;0.40;;
34403;SDS011;23116;47.660;9.126;2023-11-21T01:21:27;1.63;;;0.60;;
34403;SDS011;23116;47.660;9.126;2023-11-21T01:23:54;2.72;;;0.63;;
34403;SDS011;23116;47.660;9.126;2023-11-21T01:26:20;2.28;;;0.75;;
34403;SDS011;23116;47.660;9.126;2023-11-21T01:28:47;0.50;;;0.50;;
34403;SDS011;23116;47.660;9.126;2023-11-21T01:31:16;2.58;;;0.70;;
34403;SDS011;23116;47.660;9.126;2023-11-21T01:33:44;2.38;;;1.00;;
34403;SDS011;23116;47.660;9.126;2023-11-21T01:36:11;1.10;;;0.57;;
34403;SDS011;23116;47.660;9.126;2023-11-21T01:38:37;2.28;;;0.70;;
34403;SDS011;23116;47.660;9.126;2023-11-21T01:41:04;2.45;;;0.93;;
34403;SDS011;23116;47.660;9.126;2023-11-21T01:43:31;2.25;;;0.80;;
34403;SDS011;23116;47.660;9.126;2023-11-21T01:45:58;3.05;;;0.68;;
34403;SDS011;23116;47.660;9.126;2023-11-21T01:48:25;1.40;;;0.70;;
34403;SDS011;23116;47.660;9.126;2023-11-21T01:50:52;2.42;;;0.70;;
34403;SDS011;23116;47.660;9.126;2023-11-21T01:53:19;2.15;;;0.80;;
34403;SDS011;23116;47.660;9.126;2023-11-21T01:55:45;1.92;;;0.82;;
34403;SDS011;23116;47.660;9.126;2023-11-21T01:58:12;1.35;;;0.65;;
34403;SDS011;23116;47.660;9.126;2023-11-21T02:00:39;3.40;;;0.60;;
34403;SDS011;23116;47.660;9.126;2023-11-21T02:03:06;1.63;;;0.55;;
34403;SDS011;23116;47.660;9.126;2023-11-21T02:05:32;0.50;;;0.32;;
34403;SDS011;23116;47.660;9.126;2023-11-21T02:07:59;3.00;;;1.00;;
34403;SDS011;23116;47.660;9.126;2023-11-21T02:10:26;0.88;;;0.43;;
34403;SDS011;23116;47.660;9.126;2023-11-21T02:12:52;1.17;;;0.60;;
34403;SDS011;23116;47.660;9.126;2023-11-21T02:15:19;1.50;;;0.60;;
34403;SDS011;23116;47.660;9.126;2023-11-21T02:17:46;0.75;;;0.55;;
34403;SDS011;23116;47.660;9.126;2023-11-21T02:20:17;1.75;;;0.65;;
34403;SDS011;23116;47.660;9.126;2023-11-21T02:22:54;0.63;;;0.52;;
34403;SDS011;23116;47.660;9.126;2023-11-21T02:25:25;2.17;;;0.82;;
34403;SDS011;23116;47.660;9.126;2023-11-21T02:27:53;1.35;;;0.57;;
34403;SDS011;23116;47.660;9.126;2023-11-21T02:30:25;1.97;;;0.90;;
34403;SDS011;23116;47.660;9.126;2023-11-21T02:32:57;1.10;;;0.40;;
34403;SDS011;23116;47.660;9.126;2023-11-21T02:35:23;2.42;;;0.70;;
34403;SDS011;23116;47.660;9.126;2023-11-21T02:37:53;3.30;;;0.90;;
34403;SDS011;23116;47.660;9.126;2023-11-21T02:40:20;1.75;;;0.50;;
34403;SDS011;23116;47.660;9.126;2023-11-21T02:42:47;1.70;;;0.57;;
34403;SDS011;23116;47.660;9.126;2023-11-21T02:45:16;2.08;;;0.80;;
34403;SDS011;23116;47.660;9.126;2023-11-21T02:47:45;2.25;;;0.70;;
34403;SDS011;23116;47.660;9.126;2023-11-21T02:50:12;0.65;;;0.30;;
34403;SDS011;23116;47.660;9.126;2023-11-21T02:52:39;1.35;;;0.47;;
34403;SDS011;23116;47.660;9.126;2023-11-21T02:55:06;0.38;;;0.28;;
34403;SDS011;23116;47.660;9.126;2023-11-21T02:57:33;0.82;;;0.40;;
34403;SDS011;23116;47.660;9.126;2023-11-21T03:00:00;0.30;;;0.20;;
34403;SDS011;23116;47.660;9.126;2023-11-21T03:02:27;0.93;;;0.40;;
34403;SDS011;23116;47.660;9.126;2023-11-21T03:04:53;1.38;;;0.70;;
34403;SDS011;23116;47.660;9.126;2023-11-21T03:07:23;2.70;;;0.57;;
34403;SDS011;23116;47.660;9.126;2023-11-21T03:09:50;1.80;;;0.38;;
34403;SDS011;23116;47.660;9.126;2023-11-21T03:12:16;0.40;;;0.30;;
34403;SDS011;23116;47.660;9.126;2023-11-21T03:14:43;0.75;;;0.60;;
34403;SDS011;23116;47.660;9.126;2023-11-21T03:17:09;0.98;;;0.30;;
34403;SDS011;23116;47.660;9.126;2023-11-21T03:19:36;0.25;;;0.25;;
34403;SDS011;23116;47.660;9.126;2023-11-21T03:22:03;1.98;;;0.40;;
34403;SDS011;23116;47.660;9.126;2023-11-21T03:24:30;1.40;;;0.90;;
34403;SDS011;23116;47.660;9.126;2023-11-21T03:26:56;1.23;;;0.60;;
34403;SDS011;23116;47.660;9.126;2023-11-21T03:29:23;0.73;;;0.45;;
34403;SDS011;23116;47.660;9.126;2023-11-21T03:31:51;1.42;;;0.55;;
34403;SDS011;23116;47.660;9.126;2023-11-21T03:34:24;1.00;;;0.60;;
34403;SDS011;23116;47.660;9.126;2023-11-21T03:36:52;0.35;;;0.28;;
34403;SDS011;23116;47.660;9.126;2023-11-21T03:39:20;0.85;;;0.40;;
34403;SDS011;23116;47.660;9.126;2023-11-21T03:41:47;0.25;;;0.25;;
34403;SDS011;23116;47.660;9.126;2023-11-21T03:44:14;0.70;;;0.40;;
34403;SDS011;23116;47.660;9.126;2023-11-21T03:46:41;1.10;;;0.30;;
34403;SDS011;23116;47.660;9.126;2023-11-21T03:49:07;0.40;;;0.30;;
34403;SDS011;23116;47.660;9.126;2023-11-21T03:51:34;1.15;;;0.30;;
34403;SDS011;23116;47.660;9.126;2023-11-21T03:54:00;0.20;;;0.20;;
34403;SDS011;23116;47.660;9.126;2023-11-21T03:56:27;0.90;;;0.35;;
34403;SDS011;23116;47.660;9.126;2023-11-21T03:58:53;0.82;;;0.50;;
34403;SDS011;23116;47.660;9.126;2023-11-21T04:01:23;2.97;;;0.70;;
34403;SDS011;23116;47.660;9.126;2023-11-21T04:03:50;0.70;;;0.38;;
34403;SDS011;23116;47.660;9.126;2023-11-21T04:06:17;0.82;;;0.32;;
34403;SDS011;23116;47.660;9.126;2023-11-21T04:08:44;0.93;;;0.45;;
34403;SDS011;23116;47.660;9.126;2023-11-21T04:11:11;0.77;;;0.45;;
34403;SDS011;23116;47.660;9.126;2023-11-21T04:13:38;1.08;;;0.50;;
34403;SDS011;23116;47.660;9.126;2023-11-21T04:16:06;1.42;;;0.60;;
34403;SDS011;23116;47.660;9.126;2023-11-21T04:18:36;1.42;;;0.50;;
34403;SDS011;23116;47.660;9.126;2023-11-21T04:21:07;1.85;;;0.57;;
34403;SDS011;23116;47.660;9.126;2023-11-21T04:23:34;1.00;;;0.60;;
34403;SDS011;23116;47.660;9.126;2023-11-21T04:26:01;2.45;;;0.65;;
34403;SDS011;23116;47.660;9.126;2023-11-21T04:28:28;0.57;;;0.45;;
34403;SDS011;23116;47.660;9.126;2023-11-21T04:30:54;1.92;;;0.55;;
34403;SDS011;23116;47.660;9.126;2023-11-21T04:33:21;2.33;;;0.65;;
34403;SDS011;23116;47.660;9.126;2023-11-21T04:35:47;2.15;;;0.57;;
34403;SDS011;23116;47.660;9.126;2023-11-21T04:38:14;0.77;;;0.40;;
34403;SDS011;23116;47.660;9.126;2023-11-21T04:40:41;1.83;;;0.57;;
34403;SDS011;23116;47.660;9.126;2023-11-21T04:43:07;0.80;;;0.40;;
34403;SDS011;23116;47.660;9.126;2023-11-21T04:45:34;0.60;;;0.40;;
34403;SDS011;23116;47.660;9.126;2023-11-21T04:48:00;0.60;;;0.40;;
34403;SDS011;23116;47.660;9.126;2023-11-21T04:50:27;0.60;;;0.35;;
34403;SDS011;23116;47.660;9.126;2023-11-21T04:52:54;0.63;;;0.50;;
34403;SDS011;23116;47.660;9.126;2023-11-21T04:55:20;2.20;;;0.55;;
34403;SDS011;23116;47.660;9.126;2023-11-21T04:57:47;0.55;;;0.50;;
34403;SDS011;23116;47.660;9.126;2023-11-21T05:00:14;0.70;;;0.60;;
34403;SDS011;23116;47.660;9.126;2023-11-21T05:02:41;1.20;;;0.43;;
34403;SDS011;23116;47.660;9.126;2023-11-21T05:05:09;0.85;;;0.38;;
34403;SDS011;23116;47.660;9.126;2023-11-21T05:07:36;1.30;;;0.50;;
34403;SDS011;23116;47.660;9.126;2023-11-21T05:10:05;1.48;;;0.70;;
34403;SDS011;23116;47.660;9.126;2023-11-21T05:12:35;0.88;;;0.40;;
34403;SDS011;23116;47.660;9.126;2023-11-21T05:15:03;1.38;;;0.73;;
34403;SDS011;23116;47.660;9.126;2023-11-21T05:17:35;0.68;;;0.65;;
34403;SDS011;23116;47.660;9.126;2023-11-21T05:20:04;0.52;;;0.30;;
34403;SDS011;23116;47.660;9.126;2023-11-21T05:22:34;2.17;;;0.45;;
34403;SDS011;23116;47.660;9.126;2023-11-21T05:25:01;0.75;;;0.57;;
34403;SDS011;23116;47.660;9.126;2023-11-21T05:27:32;0.38;;;0.38;;
34403;SDS011;23116;47.660;9.126;2023-11-21T05:30:03;0.60;;;0.30;;
34403;SDS011;23116;47.660;9.126;2023-11-21T05:32:31;1.73;;;0.40;;
34403;SDS011;23116;47.660;9.126;2023-11-21T05:34:59;1.23;;;0.73;;
34403;SDS011;23116;47.660;9.126;2023-11-21T05:37:26;1.02;;;0.52;;
34403;SDS011;23116;47.660;9.126;2023-11-21T05:39:53;1.60;;;0.60;;
34403;SDS011;23116;47.660;9.126;2023-11-21T05:42:21;0.88;;;0.50;;
34403;SDS011;23116;47.660;9.126;2023-11-21T05:44:48;0.52;;;0.50;;
34403;SDS011;23116;47.660;9.126;2023-11-21T05:47:15;1.17;;;0.40;;
34403;SDS011;23116;47.660;9.126;2023-11-21T05:49:43;1.65;;;0.50;;
34403;SDS011;23116;47.660;9.126;2023-11-21T05:52:10;1.17;;;0.40;;
34403;SDS011;23116;47.660;9.126;2023-11-21T05:54:37;1.10;;;0.63;;
34403;SDS011;23116;47.660;9.126;2023-11-21T05:57:06;2.63;;;0.60;;
34403;SDS011;23116;47.660;9.126;2023-11-21T05:59:33;1.65;;;0.50;;
34403;SDS011;23116;47.660;9.126;2023-11-21T06:02:00;1.67;;;0.90;;
34403;SDS011;23116;47.660;9.126;2023-11-21T06:04:27;1.58;;;0.82;;
34403;SDS011;23116;47.660;9.126;2023-11-21T06:06:53;1.63;;;0.90;;
34403;SDS011;23116;47.660;9.126;2023-11-21T06:09:20;2.25;;;0.80;;
34403;SDS011;23116;47.660;9.126;2023-11-21T06:11:47;1.55;;;0.52;;
34403;SDS011;23116;47.660;9.126;2023-11-21T06:14:14;0.75;;;0.40;;
34403;SDS011;23116;47.660;9.126;2023-11-21T06:16:43;1.92;;;0.60;;
34403;SDS011;23116;47.660;9.126;2023-11-21T06:19:10;0.55;;;0.40;;
34403;SDS011;23116;47.660;9.126;2023-11-21T06:21:37;0.40;;;0.40;;
34403;SDS011;23116;47.660;9.126;2023-11-21T06:24:04;0.85;;;0.68;;
34403;SDS011;23116;47.660;9.126;2023-11-21T06:26:32;2.28;;;0.90;;
34403;SDS011;23116;47.660;9.126;2023-11-21T06:28:59;1.13;;;0.57;;
34403;SDS011;23116;47.660;9.126;2023-11-21T06:31:28;1.40;;;0.40;;
34403;SDS011;23116;47.660;9.126;2023-11-21T06:33:55;1.00;;;0.40;;
34403;SDS011;23116;47.660;9.126;2023-11-21T06:36:22;0.40;;;0.32;;
34403;SDS011;23116;47.660;9.126;2023-11-21T06:38:49;1.35;;;0.45;;
34403;SDS011;23116;47.660;9.126;2023-11-21T06:41:15;1.58;;;0.68;;
34403;SDS011;23116;47.660;9.126;2023-11-21T06:43:42;0.68;;;0.60;;
34403;SDS011;23116;47.660;9.126;2023-11-21T06:46:11;0.93;;;0.50;;
34403;SDS011;23116;47.660;9.126;2023-11-21T06:48:44;0.52;;;0.50;;
34403;SDS011;23116;47.660;9.126;2023-11-21T06:51:11;0.88;;;0.60;;
34403;SDS011;23116;47.660;9.126;2023-11-21T06:53:38;0.38;;;0.30;;
34403;SDS011;23116;47.660;9.126;2023-11-21T06:56:14;0.80;;;0.50;;
34403;SDS011;23116;47.660;9.126;2023-11-21T06:58:45;1.23;;;0.50;;
34403;SDS011;23116;47.660;9.126;2023-11-21T07:01:12;0.70;;;0.60;;
34403;SDS011;23116;47.660;9.126;2023-11-21T07:03:39;0.82;;;0.30;;
34403;SDS011;23116;47.660;9.126;2023-11-21T07:06:06;0.85;;;0.60;;
34403;SDS011;23116;47.660;9.126;2023-11-21T07:08:33;0.65;;;0.57;;
34403;SDS011;23116;47.660;9.126;2023-11-21T07:11:00;0.63;;;0.40;;
34403;SDS011;23116;47.660;9.126;2023-11-21T07:13:28;0.43;;;0.30;;
34403;SDS011;23116;47.660;9.126;2023-11-21T07:15:55;0.90;;;0.47;;
34403;SDS011;23116;47.660;9.126;2023-11-21T07:18:25;1.85;;;0.50;;
34403;SDS011;23116;47.660;9.126;2023-11-21T07:20:52;0.50;;;0.50;;
34403;SDS011;23116;47.660;9.126;2023-11-21T07:23:18;0.52;;;0.50;;
34403;SDS011;23116;47.660;9.126;2023-11-21T07:25:47;0.93;;;0.50;;
34403;SDS011;23116;47.660;9.126;2023-11-21T07:28:14;0.43;;;0.43;;
34403;SDS011;23116;47.660;9.126;2023-11-21T07:30:40;2.70;;;0.70;;
34403;SDS011;23116;47.660;9.126;2023-11-21T07:33:08;1.13;;;0.57;;
34403;SDS011;23116;47.660;9.126;2023-11-21T07:35:34;0.77;;;0.40;;
34403;SDS011;23116;47.660;9.126;2023-11-21T07:38:01;1.55;;;0.32;;
34403;SDS011;23116;47.660;9.126;2023-11-21T07:40:28;1.10;;;0.75;;
34403;SDS011;23116;47.660;9.126;2023-11-21T07:42:55;0.80;;;0.50;;
34403;SDS011;23116;47.660;9.126;2023-11-21T07:45:22;1.50;;;0.40;;
34403;SDS011;23116;47.660;9.126;2023-11-21T07:47:49;1.30;;;0.60;;
34403;SDS011;23116;47.660;9.126;2023-11-21T07:50:16;1.80;;;0.60;;
34403;SDS011;23116;47.660;9.126;2023-11-21T07:52:42;1.23;;;0.55;;
34403;SDS011;23116;47.660;9.126;2023-11-21T07:55:09;1.65;;;0.60;;
34403;SDS011;23116;47.660;9.126;2023-11-21T07:57:36;1.40;;;0.60;;
34403;SDS011;23116;47.660;9.126;2023-11-21T08:00:04;0.55;;;0.30;;
34403;SDS011;23116;47.660;9.126;2023-11-21T08:02:34;1.52;;;0.60;;
34403;SDS011;23116;47.660;9.126;2023-11-21T08:05:00;2.08;;;0.40;;
34403;SDS011;23116;47.660;9.126;2023-11-21T08:07:27;0.82;;;0.50;;
34403;SDS011;23116;47.660;9.126;2023-11-21T08:09:54;0.60;;;0.40;;
34403;SDS011;23116;47.660;9.126;2023-11-21T08:12:21;0.70;;;0.52;;
34403;SDS011;23116;47.660;9.126;2023-11-21T08:14:49;0.75;;;0.50;;
34403;SDS011;23116;47.660;9.126;2023-11-21T08:17:15;1.23;;;0.40;;
34403;SDS011;23116;47.660;9.126;2023-11-21T08:19:42;0.73;;;0.40;;
34403;SDS011;23116;47.660;9.126;2023-11-21T08:22:13;0.88;;;0.70;;
34403;SDS011;23116;47.660;9.126;2023-11-21T08:24:43;2.15;;;0.90;;
34403;SDS011;23116;47.660;9.126;2023-11-21T08:27:11;2.40;;;0.63;;
34403;SDS011;23116;47.660;9.126;2023-11-21T08:29:41;0.90;;;0.47;;
34403;SDS011;23116;47.660;9.126;2023-11-21T08:32:08;1.42;;;0.73;;
34403;SDS011;23116;47.660;9.126;2023-11-21T08:34:34;0.52;;;0.50;;
34403;SDS011;23116;47.660;9.126;2023-11-21T08:37:01;1.10;;;0.50;;
34403;SDS011;23116;47.660;9.126;2023-11-21T08:39:28;1.33;;;0.60;;
34403;SDS011;23116;47.660;9.126;2023-11-21T08:41:55;0.90;;;0.73;;
34403;SDS011;23116;47.660;9.126;2023-11-21T08:44:22;1.38;;;0.68;;
34403;SDS011;23116;47.660;9.126;2023-11-21T08:46:50;0.85;;;0.65;;
34403;SDS011;23116;47.660;9.126;2023-11-21T08:49:16;1.70;;;0.70;;
34403;SDS011;23116;47.660;9.126;2023-11-21T08:51:44;1.05;;;0.60;;
34403;SDS011;23116;47.660;9.126;2023-11-21T08:54:10;1.27;;;0.47;;
34403;SDS011;23116;47.660;9.126;2023-11-21T08:56:38;1.17;;;0.60;;
34403;SDS011;23116;47.660;9.126;2023-11-21T08:59:05;0.70;;;0.70;;
34403;SDS011;23116;47.660;9.126;2023-11-21T09:01:32;1.52;;;0.90;;
34403;SDS011;23116;47.660;9.126;2023-11-21T09:03:59;2.15;;;0.85;;
34403;SDS011;23116;47.660;9.126;2023-11-21T09:06:26;1.60;;;0.63;;
34403;SDS011;23116;47.660;9.126;2023-11-21T09:08:52;0.90;;;0.65;;
34403;SDS011;23116;47.660;9.126;2023-11-21T09:11:19;1.52;;;1.02;;
34403;SDS011;23116;47.660;9.126;2023-11-21T09:13:45;1.67;;;0.90;;
34403;SDS011;23116;47.660;9.126;2023-11-21T09:16:13;1.17;;;0.50;;
34403;SDS011;23116;47.660;9.126;2023-11-21T09:18:41;1.33;;;0.82;;
34403;SDS011;23116;47.660;9.126;2023-11-21T09:21:08;1.77;;;0.80;;
34403;SDS011;23116;47.660;9.126;2023-11-21T09:23:35;2.72;;;0.85;;
34403;SDS011;23116;47.660;9.126;2023-11-21T09:26:01;1.10;;;1.00;;
34403;SDS011;23116;47.660;9.126;2023-11-21T09:28:30;0.70;;;0.68;;
34403;SDS011;23116;47.660;9.126;2023-11-21T09:30:56;1.88;;;0.80;;
34403;SDS011;23116;47.660;9.126;2023-11-21T09:33:23;1.77;;;0.70;;
34403;SDS011;23116;47.660;9.126;2023-11-21T09:35:50;1.75;;;0.60;;
34403;SDS011;23116;47.660;9.126;2023-11-21T09:38:17;1.00;;;0.63;;
34403;SDS011;23116;47.660;9.126;2023-11-21T09:40:44;1.45;;;0.65;;
34403;SDS011;23116;47.660;9.126;2023-11-21T09:43:17;1.88;;;1.00;;
34403;SDS011;23116;47.660;9.126;2023-11-21T09:45:47;1.33;;;1.00;;
34403;SDS011;23116;47.660;9.126;2023-11-21T09:48:26;1.17;;;0.88;;
34403;SDS011;23116;47.660;9.126;2023-11-21T09:50:53;0.73;;;0.73;;
34403;SDS011;23116;47.660;9.126;2023-11-21T09:53:21;2.13;;;0.90;;
34403;SDS011;23116;47.660;9.126;2023-11-21T09:55:50;2.13;;;0.77;;
34403;SDS011;23116;47.660;9.126;2023-11-21T09:58:18;2.15;;;0.95;;
34403;SDS011;23116;47.660;9.126;2023-11-21T10:00:51;2.20;;;0.98;;
34403;SDS011;23116;47.660;9.126;2023-11-21T10:03:22;2.00;;;0.80;;
34403;SDS011;23116;47.660;9.126;2023-11-21T10:05:50;1.17;;;0.88;;
34403;SDS011;23116;47.660;9.126;2023-11-21T10:08:18;1.65;;;0.85;;
34403;SDS011;23116;47.660;9.126;2023-11-21T10:10:49;0.95;;;0.60;;
34403;SDS011;23116;47.660;9.126;2023-11-21T10:13:18;0.82;;;0.70;;
34403;SDS011;23116;47.660;9.126;2023-11-21T10:15:48;1.65;;;0.70;;
34403;SDS011;23116;47.660;9.126;2023-11-21T10:18:18;1.95;;;0.85;;
34403;SDS011;23116;47.660;9.126;2023-11-21T10:20:45;1.02;;;0.60;;
34403;SDS011;23116;47.660;9.126;2023-11-21T10:23:17;1.17;;;0.60;;
34403;SDS011;23116;47.660;9.126;2023-11-21T10:25:46;0.80;;;0.80;;
34403;SDS011;23116;47.660;9.126;2023-11-21T10:28:12;1.13;;;0.60;;
34403;SDS011;23116;47.660;9.126;2023-11-21T10:30:39;1.98;;;0.63;;
34403;SDS011;23116;47.660;9.126;2023-11-21T10:33:06;1.10;;;0.50;;
34403;SDS011;23116;47.660;9.126;2023-11-21T10:35:46;0.77;;;0.40;;
34403;SDS011;23116;47.660;9.126;2023-11-21T10:38:20;2.05;;;0.55;;
34403;SDS011;23116;47.660;9.126;2023-11-21T10:40:49;0.60;;;0.50;;
34403;SDS011;23116;47.660;9.126;2023-11-21T10:43:16;0.75;;;0.60;;
34403;SDS011;23116;47.660;9.126;2023-11-21T10:45:43;0.80;;;0.60;;
34403;SDS011;23116;47.660;9.126;2023-11-21T10:48:11;0.82;;;0.70;;
34403;SDS011;23116;47.660;9.126;2023-11-21T10:50:43;0.40;;;0.40;;
34403;SDS011;23116;47.660;9.126;2023-11-21T10:53:12;1.73;;;0.52;;
34403;SDS011;23116;47.660;9.126;2023-11-21T10:55:39;0.47;;;0.43;;
34403;SDS011;23116;47.660;9.126;2023-11-21T10:58:08;0.55;;;0.50;;
34403;SDS011;23116;47.660;9.126;2023-11-21T11:00:39;0.52;;;0.52;;
34403;SDS011;23116;47.660;9.126;2023-11-21T11:03:06;0.50;;;0.50;;
34403;SDS011;23116;47.660;9.126;2023-11-21T11:05:38;0.60;;;0.55;;
34403;SDS011;23116;47.660;9.126;2023-11-21T11:08:11;0.40;;;0.40;;
34403;SDS011;23116;47.660;9.126;2023-11-21T11:10:44;0.40;;;0.40;;
34403;SDS011;23116;47.660;9.126;2023-11-21T11:15:43;0.73;;;0.52;;
34403;SDS011;23116;47.660;9.126;2023-11-21T11:18:13;0.45;;;0.45;;
34403;SDS011;23116;47.660;9.126;2023-11-21T11:20:42;0.40;;;0.30;;
34403;SDS011;23116;47.660;9.126;2023-11-21T11:37:27;1.48;;;0.20;;
34403;SDS011;23116;47.660;9.126;2023-11-21T11:39:53;0.15;;;0.10;;
34403;SDS011;23116;47.660;9.126;2023-11-21T11:42:22;0.10;;;0.10;;
34403;SDS011;23116;47.660;9.126;2023-11-21T11:44:49;0.10;;;0.10;;
34403;SDS011;23116;47.660;9.126;2023-11-21T11:47:19;0.00;;;0.00;;
34403;SDS011;23116;47.660;9.126;2023-11-21T11:52:39;0.10;;;0.08;;
34403;SDS011;23116;47.660;9.126;2023-11-21T11:55:11;0.22;;;0.20;;
34403;SDS011;23116;47.660;9.126;2023-11-21T11:57:40;0.68;;;0.20;;
34403;SDS011;23116;47.660;9.126;2023-11-21T12:02:45;0.35;;;0.32;;
34403;SDS011;23116;47.660;9.126;2023-11-21T12:05:18;1.52;;;0.13;;
34403;SDS011;23116;47.660;9.126;2023-11-21T12:10:29;0.40;;;0.20;;
34403;SDS011;23116;47.660;9.126;2023-11-21T12:12:58;0.10;;;0.10;;
34403;SDS011;23116;47.660;9.126;2023-11-21T12:15:33;0.13;;;0.10;;
34403;SDS011;23116;47.660;9.126;2023-11-21T12:18:00;0.00;;;0.00;;
34403;SDS011;23116;47.660;9.126;2023-11-21T12:20:27;0.10;;;0.08;;
34403;SDS011;23116;47.660;9.126;2023-11-21T12:23:03;0.00;;;0.00;;
34403;SDS011;23116;47.660;9.126;2023-11-21T12:25:31;0.00;;;0.00;;
34403;SDS011;23116;47.660;9.126;2023-11-21T12:27:59;0.30;;;0.20;;
34403;SDS011;23116;47.660;9.126;2023-11-21T12:30:26;0.15;;;0.10;;
34403;SDS011;23116;47.660;9.126;2023-11-21T12:33:01;0.38;;;0.10;;
34403;SDS011;23116;47.660;9.126;2023-11-21T12:35:29;0.13;;;0.13;;
34403;SDS011;23116;47.660;9.126;2023-11-21T12:40:29;0.20;;;0.20;;
34403;SDS011;23116;47.660;9.126;2023-11-21T12:42:57;0.10;;;0.10;;
34403;SDS011;23116;47.660;9.126;2023-11-21T12:45:26;0.05;;;0.05;;
34403;SDS011;23116;47.660;9.126;2023-11-21T12:50:33;0.40;;;0.32;;
34403;SDS011;23116;47.660;9.126;2023-11-21T12:53:02;0.13;;;0.13;;
34403;SDS011;23116;47.660;9.126;2023-11-21T12:55:31;0.10;;;0.10;;
34403;SDS011;23116;47.660;9.126;2023-11-21T12:58:02;0.10;;;0.10;;
34403;SDS011;23116;47.660;9.126;2023-11-21T13:00:38;0.20;;;0.20;;
34403;SDS011;23116;47.660;9.126;2023-11-21T13:03:12;0.13;;;0.13;;
34403;SDS011;23116;47.660;9.126;2023-11-21T13:05:50;0.17;;;0.17;;
34403;SDS011;23116;47.660;9.126;2023-11-21T13:08:20;0.52;;;0.10;;
34403;SDS011;23116;47.660;9.126;2023-11-21T13:10:49;0.85;;;0.13;;
34403;SDS011;23116;47.660;9.126;2023-11-21T13:13:21;0.32;;;0.10;;
34403;SDS011;23116;47.660;9.126;2023-11-21T13:18:18;1.52;;;0.25;;
34403;SDS011;23116;47.660;9.126;2023-11-21T13:20:46;0.30;;;0.30;;
34403;SDS011;23116;47.660;9.126;2023-11-21T13:23:14;0.25;;;0.25;;
34403;SDS011;23116;47.660;9.126;2023-11-21T13:25:44;0.50;;;0.50;;
34403;SDS011;23116;47.660;9.126;2023-11-21T13:28:12;1.00;;;0.52;;
34403;SDS011;23116;47.660;9.126;2023-11-21T13:30:47;0.68;;;0.40;;
34403;SDS011;23116;47.660;9.126;2023-11-21T13:33:17;0.47;;;0.47;;
34403;SDS011;23116;47.660;9.126;2023-11-21T13:35:47;0.63;;;0.43;;
34403;SDS011;23116;47.660;9.126;2023-11-21T13:38:16;0.40;;;0.40;;
34403;SDS011;23116;47.660;9.126;2023-11-21T13:40:49;0.40;;;0.40;;
34403;SDS011;23116;47.660;9.126;2023-11-21T13:43:24;0.60;;;0.55;;
34403;SDS011;23116;47.660;9.126;2023-11-21T13:45:53;0.55;;;0.50;;
34403;SDS011;23116;47.660;9.126;2023-11-21T13:48:38;0.88;;;0.60;;
34403;SDS011;23116;47.660;9.126;2023-11-21T13:51:10;0.55;;;0.55;;
34403;SDS011;23116;47.660;9.126;2023-11-21T13:53:47;0.60;;;0.50;;
34403;SDS011;23116;47.660;9.126;2023-11-21T13:56:15;0.55;;;0.50;;
34403;SDS011;23116;47.660;9.126;2023-11-21T13:58:44;0.60;;;0.55;;
34403;SDS011;23116;47.660;9.126;2023-11-21T14:01:17;0.80;;;0.65;;
34403;SDS011;23116;47.660;9.126;2023-11-21T14:03:54;0.80;;;0.63;;
34403;SDS011;23116;47.660;9.126;2023-11-21T14:06:37;1.05;;;0.93;;
34403;SDS011;23116;47.660;9.126;2023-11-21T14:09:14;0.82;;;0.65;;
34403;SDS011;23116;47.660;9.126;2023-11-21T14:11:57;0.75;;;0.52;;
34403;SDS011;23116;47.660;9.126;2023-11-21T14:14:25;0.47;;;0.40;;
34403;SDS011;23116;47.660;9.126;2023-11-21T14:16:55;0.50;;;0.40;;
34403;SDS011;23116;47.660;9.126;2023-11-21T14:19:23;0.40;;;0.40;;
34403;SDS011;23116;47.660;9.126;2023-11-21T14:21:57;0.68;;;0.57;;
34403;SDS011;23116;47.660;9.126;2023-11-21T14:24:23;0.40;;;0.40;;
34403;SDS011;23116;47.660;9.126;2023-11-21T14:26:51;1.75;;;0.30;;
34403;SDS011;23116;47.660;9.126;2023-11-21T14:29:18;0.75;;;0.50;;
34403;SDS011;23116;47.660;9.126;2023-11-21T14:31:48;1.13;;;0.80;;
34403;SDS011;23116;47.660;9.126;2023-11-21T14:34:21;0.52;;;0.43;;
34403;SDS011;23116;47.660;9.126;2023-11-21T14:36:49;0.45;;;0.45;;
34403;SDS011;23116;47.660;9.126;2023-11-21T14:39:16;0.35;;;0.35;;
34403;SDS011;23116;47.660;9.126;2023-11-21T14:44:15;0.80;;;0.50;;
34403;SDS011;23116;47.660;9.126;2023-11-21T14:46:42;1.10;;;0.47;;
34403;SDS011;23116;47.660;9.126;2023-11-21T14:49:14;1.20;;;0.40;;
34403;SDS011;23116;47.660;9.126;2023-11-21T14:51:46;0.52;;;0.28;;
34403;SDS011;23116;47.660;9.126;2023-11-21T14:54:23;0.40;;;0.40;;
34403;SDS011;23116;47.660;9.126;2023-11-21T14:57:04;0.82;;;0.40;;
34403;SDS011;23116;47.660;9.126;2023-11-21T14:59:45;0.98;;;0.35;;
34403;SDS011;23116;47.660;9.126;2023-11-21T15:02:16;0.73;;;0.47;;
34403;SDS011;23116;47.660;9.126;2023-11-21T15:05:04;0.90;;;0.57;;
34403;SDS011;23116;47.660;9.126;2023-11-21T15:07:31;3.05;;;0.40;;
34403;SDS011;23116;47.660;9.126;2023-11-21T15:09:57;0.57;;;0.52;;
34403;SDS011;23116;47.660;9.126;2023-11-21T15:12:24;1.20;;;0.57;;
34403;SDS011;23116;47.660;9.126;2023-11-21T15:14:52;0.35;;;0.35;;
34403;SDS011;23116;47.660;9.126;2023-11-21T15:17:20;0.40;;;0.40;;
34403;SDS011;23116;47.660;9.126;2023-11-21T15:19:56;0.68;;;0.40;;
34403;SDS011;23116;47.660;9.126;2023-11-21T15:22:22;0.43;;;0.43;;
34403;SDS011;23116;47.660;9.126;2023-11-21T15:24:50;0.88;;;0.35;;
34403;SDS011;23116;47.660;9.126;2023-11-21T15:27:18;0.40;;;0.40;;
34403;SDS011;23116;47.660;9.126;2023-11-21T15:29:46;0.32;;;0.32;;